METAR Data
IDs: Format: Raw Decoded Include TAF

Data at: 0823 UTC 20 Sep 2018

PASL 200602Z AUTO 22003KT 10SM OVC046 09/08 A3024 RMK AO2 SLP237 60001 T00890083 10111 20089 56006
PASL 200302Z AUTO 00000KT 10SM -RA BKN039 OVC060 09/09 A3025 RMK AO2 SLP241 P0001 60001 T00940089 56008
PASL 200202Z AUTO 00000KT 10SM -RA FEW038 OVC055 10/08 A3025 RMK AO2 RAB01000109 SLP243 P0000 T01000083
PASL 192002Z AUTO VRB03KT 10SM OVC019 10/07 A3029 RMK AO2 SLP257 T01000072
PASL 191602Z AUTO 00000KT 10SM OVC019 06/05 A3031 RMK AO2 RAB1541E1552 SLP262 P0000 T00560050
PASL 191548Z AUTO 00000KT 10SM -RA SCT019 BKN027 OVC035 06/05 A3031 RMK AO2 RAB41 P0000
PASL 191302Z AUTO 00000KT 10SM -RA SCT034 OVC043 05/04 A3032 RMK AO2 RAB1226 SLP265 P0000 T00500044
PASL 191202Z AUTO 00000KT 10SM OVC047 04/04 A3033 RMK AO2 SLP267 T00440039 10067 20028 51002
PASL 191002Z AUTO 00000KT 10SM OVC049 04/04 A3033 RMK AO2 SLP269 T00440039
PASL 190902Z AUTO 00000KT 10SM OVC049 03/03 A3033 RMK AO2 SLP268 T00330033 400330033 53005
PASL 190802Z AUTO 00000KT 10SM CLR 03/03 A3033 RMK AO2 SLP267 T00330028
PASL 190702Z AUTO 00000KT 10SM CLR 04/04 A3032 RMK AO2 SLP265 T00440039
PASL 190602Z AUTO 00000KT 10SM FEW039 SCT049 07/06 A3031 RMK AO2 SLP263 T00670056 10133 20067 53006
PASL 190502Z AUTO 00000KT 10SM FEW035 BKN055 09/06 A3031 RMK AO2 SLP262 T00940056
PASL 190302Z AUTO 00000KT 10SM BKN034 OVC049 12/07 A3029 RMK AO2 SLP257 T01220067 55003
PASL 190102Z AUTO 00000KT 10SM OVC045 13/07 A3029 RMK AO2 SLP256 T01280067
PASL 182302Z AUTO 00000KT 10SM OVC025 12/07 A3030 RMK AO2 SLP259 T01220072
PASL 182226Z AUTO 00000KT 10SM SCT021 BKN030 OVC095 12/08 A3030 RMK AO2
PASL 182202Z AUTO 00000KT 10SM OVC023 12/08 A3030 RMK AO2 SLP259 T01170078
PASL 182102Z AUTO 00000KT 10SM OVC023 11/07 A3029 RMK AO2 SLP257 60000 T01110072 51006